Stevensville, Pennsylvania
Current Conditions -  °F | °C
As of 5:53 AM on Wednesday 26 Nov 2014 (Local Time) from KBGM Reporting Station
Overcast Overcast  
Wind Chill: 31°   Ceiling: 2300
Heat Index: 31°   Visibility: 10mi
Dew Point: 25°   Wind: 0mph
Humidity: 79%   Direction: NA
Pressure: 30.13"   Gusts: NA
Location:  41.76°N, 76.18°W
Report Text: KBGM 261053Z AUTO 00000KT 10SM OVC023 M01/M04 A3013 RMK AO2 SLP218 T10061039
Loading
Personal Weather Stations






























Interactive Weather Map New forecast layout! Learn more

10-Day Weather Forecast

Advertisements
Track Severe Weather on mobile